Meteorological Aerodrome Report (METAR)

METAR

Data at: 0140 UTC 24 Sep 2020

METAR for:NVSC (Sola/Vanua Lava Arpt, --, NV)
Text:NVSC 240000Z 11007T 9999 SCT020 30/24 Q1012
Temperature: 30.0°C ( 86°F)
Dewpoint: 24.0°C ( 75°F) [RH = 70%]
Pressure (altimeter):29.88 inches Hg (1012.0 mb)
Visibility:6 or more sm (10+ km)
Ceiling:at least 12,000 feet AGL
Clouds: scattered clouds at 2000 feet AGL

METAR

Data at: 0140 UTC 24 Sep 2020

METAR for:NVSG (Longana Arpt, --, NV)
Text:NVSG 240000Z 12012KT 9999 FEW025 28/22 Q1012
Temperature: 28.0°C ( 82°F)
Dewpoint: 22.0°C ( 72°F) [RH = 70%]
Pressure (altimeter):29.88 inches Hg (1012.0 mb)
Winds:from the ESE (120 degrees) at 14 MPH (12 knots; 6.2 m/s)
Visibility:6 or more sm (10+ km)
Ceiling:at least 12,000 feet AGL
Clouds: few clouds at 2500 feet AGL

METAR

Data at: 0140 UTC 24 Sep 2020

METAR for:NVSS (Santo/Pekoa Intl, --, NV)
Text:NVSS 240100Z 12005KT 9999 FEW020 28/22 Q1011
Temperature: 28.0°C ( 82°F)
Dewpoint: 22.0°C ( 72°F) [RH = 70%]
Pressure (altimeter):29.85 inches Hg (1011.0 mb)
Winds:from the ESE (120 degrees) at 6 MPH (5 knots; 2.6 m/s)
Visibility:6 or more sm (10+ km)
Ceiling:at least 12,000 feet AGL
Clouds: few clouds at 2000 feet AGL

METAR

Data at: 0140 UTC 24 Sep 2020

METAR for:NVSL (Malekula/Lamap, --, NV)
Text:No data found

METAR

Data at: 0140 UTC 24 Sep 2020

METAR for:NVSP (Norsup Arpt, --, NV)
Text:No data found

METAR

Data at: 0140 UTC 24 Sep 2020

METAR for:NVVV (Efate/Bauerfield Int, --, NV)
Text:NVVV 240100Z 13011KT 9999 SCT020 29/23 Q1012
Temperature: 29.0°C ( 84°F)
Dewpoint: 23.0°C ( 73°F) [RH = 70%]
Pressure (altimeter):29.88 inches Hg (1012.0 mb)
Winds:from the SE (130 degrees) at 13 MPH (11 knots; 5.7 m/s)
Visibility:6 or more sm (10+ km)
Ceiling:at least 12,000 feet AGL
Clouds: scattered clouds at 2000 feet AGL

METAR

Data at: 0140 UTC 24 Sep 2020

METAR for:NVVW (Tanna Arpt, --, NV)
Text:NVVW 240100Z 09008KT 9999 BKN020 29/22 Q1013
Temperature: 29.0°C ( 84°F)
Dewpoint: 22.0°C ( 72°F) [RH = 66%]
Pressure (altimeter):29.91 inches Hg (1013.0 mb)
Winds:from the E (90 degrees) at 9 MPH (8 knots; 4.1 m/s)
Visibility:6 or more sm (10+ km)
Ceiling:2000 feet AGL
Clouds: broken clouds at 2000 feet AGL

METAR

Data at: 0140 UTC 24 Sep 2020

METAR for:NVVA (Aneityum/Mystery Isl, --, NV)
Text:NVVA 240000Z 09003KT FEW015 SCT020 OVC040 25/23 Q1014
Temperature: 25.0°C ( 77°F)
Dewpoint: 23.0°C ( 73°F) [RH = 89%]
Pressure (altimeter):29.94 inches Hg (1014.0 mb)
Winds:from the E (90 degrees) at 3 MPH (3 knots; 1.5 m/s)
Ceiling:4000 feet AGL
Clouds: few clouds at 1500 feet AGL, scattered clouds at 2000 feet AGL, overcast cloud deck at 4000 feet AGL

METAR

Data at: 0140 UTC 24 Sep 2020

NVVV 240100Z 13011KT 9999 SCT020 29/23 Q1012
NVSC 240000Z 11007T 9999 SCT020 30/24 Q1012
NVSG 240000Z 12012KT 9999 FEW025 28/22 Q1012
NVSS 240100Z 12005KT 9999 FEW020 28/22 Q1011
No Data available for NVSL
No Data available for NVSP
NVVW 240100Z 09008KT 9999 BKN020 29/22 Q1013
NVVA 240000Z 09003KT FEW015 SCT020 OVC040 25/23 Q1014